Time;durP1;ratioP1;P1;durP2;ratioP2;P2;SDS_P1;SDS_P2;PMS_P1;PMS_P2;Temp;Humidity;BMP_temperature;BMP_pressure;BME280_temperature;BME280_humidity;BME280_pressure;Samples;Min_cycle;Max_cycle;Signal;HPM_P1;HPM_P2
2022/12/19 00:02:11;;;;;;;39.78;25.50;;;3.10;1.00;;;;;;5006824;28;20075;-65
2022/12/19 00:04:37;;;;;;;42.33;25.88;;;2.90;1.00;;;;;;5029330;28;20080;-64
2022/12/19 00:07:02;;;;;;;43.90;26.92;;;2.30;4.90;;;;;;5030992;28;20041;-64
2022/12/19 00:09:28;;;;;;;42.72;26.17;;;3.00;68.10;;;;;;5025035;28;20044;-64
2022/12/19 00:11:54;;;;;;;39.53;22.65;;;2.30;99.90;;;;;;5029015;28;20096;-64
2022/12/19 00:14:19;;;;;;;42.22;26.65;;;3.30;99.90;;;;;;5029949;28;20498;-64
2022/12/19 00:16:45;;;;;;;39.22;24.95;;;3.00;99.90;;;;;;5045885;28;20545;-64
2022/12/19 00:19:11;;;;;;;37.42;21.05;;;2.40;99.90;;;;;;5030049;28;20084;-64
2022/12/19 00:21:37;;;;;;;35.22;20.40;;;3.10;1.00;;;;;;5029694;28;20045;-64
2022/12/19 00:24:04;;;;;;;45.75;25.77;;;2.30;1.00;;;;;;5030064;28;20042;-64
2022/12/19 00:26:32;;;;;;;40.22;25.25;;;2.80;1.00;;;;;;5045846;28;20038;-65
2022/12/19 00:29:04;;;;;;;40.40;24.38;;;2.70;7.50;;;;;;5030167;28;20125;-64
2022/12/19 00:31:32;;;;;;;42.58;25.00;;;3.10;90.10;;;;;;5031503;28;20077;-64
2022/12/19 00:33:58;;;;;;;44.85;27.38;;;2.40;99.90;;;;;;5031505;28;20383;-64
2022/12/19 00:36:26;;;;;;;41.25;25.48;;;3.20;99.90;;;;;;5032753;28;20056;-64
2022/12/19 00:38:54;;;;;;;45.95;27.33;;;3.00;99.90;;;;;;5033645;28;20049;-64
2022/12/19 00:41:31;;;;;;;45.65;27.38;;;2.20;1.00;;;;;;5034699;28;20030;-65
2022/12/19 00:44:05;;;;;;;38.85;23.80;;;2.50;1.00;;;;;;5034595;28;20041;-64
2022/12/19 00:46:32;;;;;;;34.40;20.30;;;2.30;12.60;;;;;;5028387;28;20084;-64
2022/12/19 00:48:58;;;;;;;60.17;36.85;;;2.20;99.90;;;;;;5031673;28;20052;-64
2022/12/19 00:51:29;;;;;;;53.13;31.63;;;3.40;99.90;;;;;;5034596;28;20045;-64
2022/12/19 00:53:56;;;;;;;51.42;30.83;;;3.50;99.90;;;;;;5031864;28;20502;-65
2022/12/19 00:56:27;;;;;;;194.80;38.03;;;3.00;1.00;;;;;;5029565;28;20021;-64
2022/12/19 00:58:54;;;;;;;57.60;38.10;;;3.70;1.00;;;;;;5023090;28;20088;-64
2022/12/19 01:01:23;;;;;;;53.63;31.00;;;2.80;99.90;;;;;;5020169;28;20037;-65
2022/12/19 01:03:49;;;;;;;49.22;29.98;;;3.50;99.90;;;;;;5013975;28;20033;-64
2022/12/19 01:06:16;;;;;;;48.67;29.65;;;3.50;1.00;;;;;;5032413;28;20030;-65
2022/12/19 01:08:41;;;;;;;42.67;27.85;;;3.40;20.50;;;;;;5032849;28;20042;-64
2022/12/19 01:11:07;;;;;;;47.63;29.50;;;3.60;99.90;;;;;;5031516;28;20463;-64
2022/12/19 01:13:35;;;;;;;51.15;29.83;;;3.00;99.90;;;;;;5048218;28;20045;-65
2022/12/19 01:16:02;;;;;;;54.58;33.67;;;2.70;1.00;;;;;;5034035;28;20034;-65
2022/12/19 01:18:28;;;;;;;50.53;30.92;;;3.30;83.40;;;;;;5033891;28;20037;-65
2022/12/19 01:20:53;;;;;;;49.70;28.67;;;2.40;99.90;;;;;;5023978;28;20087;-64
2022/12/19 01:23:19;;;;;;;46.78;28.45;;;3.70;99.90;;;;;;5026073;28;20061;-64
2022/12/19 01:25:51;;;;;;;54.83;31.67;;;3.30;1.00;;;;;;5033195;28;20041;-64
2022/12/19 01:28:16;;;;;;;49.25;28.67;;;3.90;5.40;;;;;;5032446;28;20040;-65
2022/12/19 01:30:42;;;;;;;39.17;23.23;;;3.20;99.90;;;;;;5023786;28;20030;-65
2022/12/19 01:33:12;;;;;;;46.55;28.17;;;2.70;99.90;;;;;;5030244;28;20137;-64
2022/12/19 01:35:41;;;;;;;48.13;28.85;;;2.70;99.90;;;;;;5020820;28;20379;-64
2022/12/19 01:38:11;;;;;;;47.35;28.35;;;2.40;1.00;;;;;;5029933;28;20094;-64
2022/12/19 01:40:37;;;;;;;51.72;30.48;;;2.70;1.00;;;;;;5030132;28;20067;-64
2022/12/19 01:43:03;;;;;;;55.00;31.00;;;3.40;1.00;;;;;;5031723;28;20032;-64
2022/12/19 01:45:33;;;;;;;44.08;27.45;;;4.00;97.60;;;;;;5031523;28;20111;-64
2022/12/19 01:48:16;;;;;;;46.65;28.02;;;3.90;99.90;;;;;;5028777;28;20095;-63
2022/12/19 01:51:03;;;;;;;44.40;24.30;;;3.70;99.90;;;;;;5027315;28;20041;-64
2022/12/19 01:53:35;;;;;;;56.33;33.45;;;3.40;99.90;;;;;;5026625;28;20048;-63
2022/12/19 01:56:02;;;;;;;53.45;32.70;;;2.70;1.00;;;;;;5022730;28;20479;-64
2022/12/19 01:58:28;;;;;;;64.68;40.00;;;2.50;1.00;;;;;;5024371;28;20045;-64
2022/12/19 02:00:53;;;;;;;59.88;34.38;;;4.00;1.00;;;;;;5029139;28;20419;-65
2022/12/19 02:03:27;;;;;;;63.22;35.55;;;2.50;1.00;;;;;;5047100;28;20049;-65
2022/12/19 02:05:53;;;;;;;63.45;37.50;;;2.70;1.00;;;;;;5033243;28;20042;-64
2022/12/19 02:08:20;;;;;;;55.03;32.55;;;3.60;17.90;;;;;;5032973;28;20372;-64
2022/12/19 02:10:46;;;;;;;56.83;32.72;;;4.00;97.80;;;;;;5019392;28;20113;-65
2022/12/19 02:13:12;;;;;;;58.22;32.28;;;2.50;99.90;;;;;;5026586;28;20136;-64
2022/12/19 02:16:01;;;;;;;51.95;29.88;;;2.50;99.90;;;;;;5028879;28;20129;-65
2022/12/19 02:18:29;;;;;;;48.13;29.52;;;2.80;99.90;;;;;;5024567;28;20048;-65
2022/12/19 02:21:22;;;;;;;57.03;32.35;;;3.50;99.90;;;;;;5018549;28;20053;-64
2022/12/19 02:24:00;;;;;;;54.63;31.70;;;2.90;99.90;;;;;;5030605;28;20056;-64
2022/12/19 02:26:44;;;;;;;58.55;32.80;;;2.60;99.90;;;;;;5028303;28;20073;-64
2022/12/19 02:29:31;;;;;;;51.42;30.70;;;2.60;99.90;;;;;;5026560;28;20124;-64
2022/12/19 02:32:06;;;;;;;57.05;34.30;;;3.40;99.90;;;;;;5023164;28;20046;-64
2022/12/19 02:34:43;;;;;;;56.95;31.80;;;3.50;99.90;;;;;;5025291;28;20379;-64
2022/12/19 02:37:31;;;;;;;60.13;36.15;;;4.30;99.90;;;;;;5018221;28;20049;-64
2022/12/19 02:40:18;;;;;;;57.00;35.22;;;4.00;99.90;;;;;;5028269;28;20048;-63
2022/12/19 02:42:49;;;;;;;47.65;30.17;;;4.60;99.90;;;;;;5032513;28;20041;-63
2022/12/19 02:45:18;;;;;;;67.40;38.33;;;4.50;99.90;;;;;;5027184;28;20405;-63
2022/12/19 02:47:44;;;;;;;53.00;29.85;;;4.30;99.90;;;;;;5012693;28;20394;-63
2022/12/19 02:50:10;;;;;;;51.17;29.73;;;3.00;99.90;;;;;;5012671;28;20026;-63
2022/12/19 02:52:36;;;;;;;82.47;44.13;;;3.50;99.90;;;;;;5016257;28;20045;-64
2022/12/19 02:55:16;;;;;;;103.03;37.92;;;2.70;99.90;;;;;;5028240;28;20037;-65
2022/12/19 02:57:55;;;;;;;53.13;30.20;;;4.90;99.90;;;;;;5015781;28;20046;-64
2022/12/19 03:00:23;;;;;;;61.08;36.75;;;4.20;99.90;;;;;;5026920;28;20152;-64
2022/12/19 03:03:11;;;;;;;53.25;28.88;;;3.40;99.90;;;;;;5015709;28;20073;-64
2022/12/19 03:05:42;;;;;;;53.83;30.40;;;3.90;99.90;;;;;;5020265;28;20069;-64
2022/12/19 03:08:13;;;;;;;42.95;26.00;;;2.80;99.90;;;;;;5027140;28;20044;-64
2022/12/19 03:11:06;;;;;;;53.10;29.77;;;4.40;99.90;;;;;;5023573;28;20037;-64
2022/12/19 03:13:37;;;;;;;53.33;31.38;;;4.10;99.90;;;;;;5016335;28;20037;-63
2022/12/19 03:16:04;;;;;;;46.65;28.58;;;4.10;99.90;;;;;;5020063;28;20041;-64
2022/12/19 03:18:32;;;;;;;40.85;26.27;;;3.20;99.90;;;;;;5032145;28;20164;-63
2022/12/19 03:21:03;;;;;;;49.65;25.92;;;3.60;99.90;;;;;;5020699;28;20034;-64
2022/12/19 03:23:29;;;;;;;53.40;31.15;;;4.90;99.90;;;;;;5023220;28;20490;-63
2022/12/19 03:25:59;;;;;;;47.38;27.58;;;3.30;99.90;;;;;;5014124;28;20029;-64
2022/12/19 03:29:12;;;;;;;41.72;25.23;;;5.20;99.90;;;;;;5020095;28;20090;-64
2022/12/19 03:31:40;;;;;;;44.08;24.98;;;5.20;99.90;;;;;;5014322;28;20057;-63
2022/12/19 03:34:12;;;;;;;44.88;27.88;;;3.00;99.90;;;;;;5021204;28;20033;-64
2022/12/19 03:36:42;;;;;;;58.45;34.22;;;4.50;99.90;;;;;;5017905;28;20037;-63
2022/12/19 03:39:09;;;;;;;55.03;31.95;;;5.20;99.90;;;;;;5029599;28;20048;-64
2022/12/19 03:44:24;;;;;;;56.30;33.90;;;3.80;99.90;;;;;;5031357;28;20076;-64
2022/12/19 03:47:42;;;;;;;42.22;26.88;;;4.80;99.90;;;;;;5031809;28;20132;-64
2022/12/19 03:50:08;;;;;;;39.80;24.55;;;4.90;99.90;;;;;;5010019;28;20089;-64
2022/12/19 03:52:51;;;;;;;40.05;25.23;;;5.20;99.90;;;;;;5015902;28;20491;-64
2022/12/19 03:55:23;;;;;;;39.58;23.13;;;4.70;99.90;;;;;;5027638;28;20081;-64
2022/12/19 03:57:55;;;;;;;38.60;23.05;;;3.80;99.90;;;;;;5024843;28;20045;-64
2022/12/19 04:00:23;;;;;;;39.53;23.05;;;5.60;99.90;;;;;;5022513;28;20093;-64
2022/12/19 04:02:52;;;;;;;43.92;26.60;;;5.70;99.90;;;;;;5028928;28;20041;-64
2022/12/19 04:05:22;;;;;;;46.08;28.45;;;4.40;99.90;;;;;;5030450;28;20116;-64
2022/12/19 04:07:48;;;;;;;57.90;34.78;;;5.40;99.90;;;;;;5018229;28;20025;-64
2022/12/19 04:10:18;;;;;;;51.45;30.25;;;4.00;99.90;;;;;;5035153;28;20410;-64
2022/12/19 04:12:51;;;;;;;48.83;29.73;;;4.30;99.90;;;;;;5033638;28;20130;-64
2022/12/19 04:15:22;;;;;;;50.00;31.77;;;5.90;99.90;;;;;;5034044;28;20056;-65
2022/12/19 04:17:57;;;;;;;98.93;31.80;;;5.60;99.90;;;;;;5031379;28;20163;-64
2022/12/19 04:20:27;;;;;;;39.13;25.02;;;4.30;99.90;;;;;;5019940;28;20124;-64
2022/12/19 04:23:04;;;;;;;46.00;27.33;;;4.70;99.90;;;;;;5022871;28;20046;-64
2022/12/19 04:25:34;;;;;;;32.15;20.48;;;4.40;99.90;;;;;;5023934;28;20041;-64
2022/12/19 04:28:05;;;;;;;34.55;20.23;;;4.20;99.90;;;;;;5020886;28;20649;-63
2022/12/19 04:30:32;;;;;;;36.78;23.05;;;5.50;99.90;;;;;;5030680;28;20083;-64
2022/12/19 04:32:58;;;;;;;35.75;20.52;;;6.20;99.90;;;;;;5032199;28;20041;-63
2022/12/19 04:35:24;;;;;;;36.97;24.20;;;6.30;99.90;;;;;;5027610;28;20045;-64
2022/12/19 04:37:50;;;;;;;34.92;21.20;;;6.20;99.90;;;;;;5033146;28;20521;-63
2022/12/19 04:40:16;;;;;;;37.58;23.17;;;4.50;99.90;;;;;;5029013;28;20495;-64
2022/12/19 04:42:42;;;;;;;35.42;20.52;;;4.50;99.90;;;;;;5030977;28;20041;-64
2022/12/19 04:45:08;;;;;;;36.72;22.23;;;6.50;99.90;;;;;;5034555;28;20041;-64
2022/12/19 04:47:33;;;;;;;33.53;21.80;;;6.50;99.90;;;;;;5033107;28;20041;-63
2022/12/19 04:49:59;;;;;;;30.63;19.55;;;6.00;99.90;;;;;;5033930;28;20470;-64
2022/12/19 04:52:25;;;;;;;36.58;19.65;;;4.70;99.90;;;;;;5034107;28;20131;-64
2022/12/19 04:54:50;;;;;;;36.72;24.00;;;6.60;99.90;;;;;;5034427;28;20129;-64
2022/12/19 04:57:16;;;;;;;37.90;23.75;;;6.20;99.90;;;;;;5034288;28;20398;-64
2022/12/19 04:59:41;;;;;;;40.88;24.65;;;6.60;99.90;;;;;;5034788;28;20129;-64
2022/12/19 05:02:07;;;;;;;44.90;22.90;;;5.00;99.90;;;;;;5033965;28;20041;-64
2022/12/19 05:04:33;;;;;;;35.45;23.85;;;6.70;99.90;;;;;;5015149;28;20038;-64
2022/12/19 05:06:59;;;;;;;33.53;19.85;;;6.50;99.90;;;;;;5033482;28;20041;-64
2022/12/19 05:09:24;;;;;;;28.30;17.88;;;6.70;99.90;;;;;;5034148;28;20483;-64
2022/12/19 05:11:50;;;;;;;31.00;18.10;;;4.90;99.90;;;;;;5033709;28;20054;-64
2022/12/19 05:14:16;;;;;;;36.45;23.08;;;5.90;99.90;;;;;;5017770;28;20049;-64
2022/12/19 05:16:41;;;;;;;30.40;19.45;;;6.30;99.90;;;;;;5031435;28;20029;-64
2022/12/19 05:19:07;;;;;;;35.67;22.25;;;5.30;99.90;;;;;;5031263;28;20048;-64
2022/12/19 05:21:32;;;;;;;31.80;19.42;;;6.50;99.90;;;;;;5024384;28;20052;-64
2022/12/19 05:23:58;;;;;;;28.10;18.75;;;6.70;99.90;;;;;;5030107;28;20479;-64
2022/12/19 05:26:24;;;;;;;36.75;23.13;;;6.80;99.90;;;;;;5032011;28;20053;-65
2022/12/19 05:28:50;;;;;;;36.88;21.48;;;6.80;99.90;;;;;;5020805;28;20050;-65
2022/12/19 05:31:18;;;;;;;32.00;21.95;;;5.80;99.90;;;;;;5027300;28;20041;-65
2022/12/19 05:33:45;;;;;;;24.48;15.48;;;7.00;99.90;;;;;;5016802;28;20115;-66
2022/12/19 05:36:11;;;;;;;25.00;15.68;;;5.20;99.90;;;;;;5012531;28;20038;-67
2022/12/19 05:38:37;;;;;;;23.95;15.30;;;6.10;99.90;;;;;;5027056;28;20136;-66
2022/12/19 05:41:14;;;;;;;25.95;16.35;;;6.70;99.90;;;;;;5023243;28;20517;-66
2022/12/19 05:43:41;;;;;;;24.92;14.85;;;5.00;99.90;;;;;;5026869;28;20068;-66
2022/12/19 05:46:07;;;;;;;22.77;13.00;;;6.80;99.90;;;;;;5020194;28;20061;-66
2022/12/19 05:48:33;;;;;;;27.10;15.70;;;6.40;99.90;;;;;;5017196;28;20069;-66
2022/12/19 05:50:59;;;;;;;25.10;15.27;;;6.30;99.90;;;;;;5029301;28;20045;-66
2022/12/19 05:53:26;;;;;;;28.98;17.92;;;6.30;99.90;;;;;;5028463;28;20052;-66
2022/12/19 05:56:06;;;;;;;23.70;15.07;;;7.20;99.90;;;;;;5029045;28;20052;-66
2022/12/19 05:58:32;;;;;;;25.88;17.35;;;5.50;99.90;;;;;;5031078;28;20087;-66
2022/12/19 06:01:16;;;;;;;26.35;16.73;;;6.20;99.90;;;;;;5032121;28;21980;-66
2022/12/19 06:03:41;;;;;;;20.52;13.30;;;7.10;99.90;;;;;;5028779;28;20037;-67
2022/12/19 06:06:10;;;;;;;22.48;15.25;;;7.30;99.90;;;;;;5031356;28;20056;-67
2022/12/19 06:08:36;;;;;;;19.17;12.63;;;7.40;99.90;;;;;;5028026;28;20045;-67
2022/12/19 06:11:04;;;;;;;24.80;14.05;;;7.40;99.90;;;;;;5023454;28;20529;-67
2022/12/19 06:13:31;;;;;;;19.50;12.85;;;6.80;99.90;;;;;;5023838;28;20053;-67
2022/12/19 06:16:14;;;;;;;17.35;12.23;;;7.20;99.90;;;;;;5027033;28;20037;-67
2022/12/19 06:18:41;;;;;;;19.67;13.43;;;7.50;99.90;;;;;;5042550;28;20045;-67
2022/12/19 06:21:10;;;;;;;21.23;12.90;;;5.70;99.90;;;;;;5026220;28;20044;-67
2022/12/19 06:23:36;;;;;;;25.00;16.63;;;6.70;99.90;;;;;;5026018;28;20042;-66
2022/12/19 06:26:04;;;;;;;17.02;11.57;;;7.50;99.90;;;;;;5030121;28;20037;-67
2022/12/19 06:28:30;;;;;;;26.83;16.60;;;5.70;99.90;;;;;;5026789;28;20543;-66
2022/12/19 06:31:01;;;;;;;17.50;10.95;;;7.10;99.90;;;;;;5027217;28;20600;-66
2022/12/19 06:33:28;;;;;;;16.90;12.13;;;5.40;99.90;;;;;;5021864;28;20037;-66
2022/12/19 06:36:20;;;;;;;15.23;10.38;;;6.30;99.90;;;;;;5025950;28;20491;-66
2022/12/19 06:38:47;;;;;;;13.48;9.57;;;6.00;99.90;;;;;;5020767;28;20037;-66
2022/12/19 06:43:58;;;;;;;14.05;9.20;;;5.50;99.90;;;;;;5022493;28;20059;-66
2022/12/19 06:46:24;;;;;;;16.58;10.15;;;7.50;99.90;;;;;;5025200;28;20052;-66
2022/12/19 06:48:50;;;;;;;14.10;11.55;;;6.90;99.90;;;;;;5026088;28;20447;-66
2022/12/19 06:51:16;;;;;;;14.88;10.93;;;6.50;99.90;;;;;;5023677;28;20084;-66
2022/12/19 06:53:41;;;;;;;16.60;12.18;;;6.10;99.90;;;;;;5030832;28;20463;-66
2022/12/19 06:56:07;;;;;;;16.48;12.75;;;7.30;99.90;;;;;;5028550;28;20402;-66
2022/12/19 06:58:33;;;;;;;14.93;10.07;;;7.50;99.90;;;;;;5029211;28;20033;-67
2022/12/19 07:01:00;;;;;;;12.80;9.63;;;7.90;99.90;;;;;;5027078;28;20042;-66
2022/12/19 07:03:31;;;;;;;11.07;8.35;;;7.70;99.90;;;;;;5030575;28;20112;-65
2022/12/19 07:05:56;;;;;;;11.63;8.73;;;8.40;99.90;;;;;;5030734;28;20045;-65
2022/12/19 07:08:22;;;;;;;9.80;7.55;;;8.30;99.90;;;;;;5031684;28;20380;-65
2022/12/19 07:10:47;;;;;;;10.80;8.68;;;6.90;99.90;;;;;;5032437;28;20410;-65
2022/12/19 07:13:13;;;;;;;12.40;9.32;;;6.30;99.90;;;;;;5031345;28;20052;-65
2022/12/19 07:15:39;;;;;;;12.88;9.23;;;7.00;99.90;;;;;;5025454;28;20495;-66
2022/12/19 07:18:08;;;;;;;11.23;9.32;;;8.10;99.90;;;;;;5028668;28;20043;-66
2022/12/19 07:20:36;;;;;;;14.65;11.50;;;7.40;99.90;;;;;;5020765;28;20256;-66
2022/12/19 07:23:03;;;;;;;16.67;13.05;;;6.80;99.90;;;;;;5023418;28;20119;-66
2022/12/19 07:25:30;;;;;;;11.23;8.23;;;8.00;99.90;;;;;;5030168;28;20087;-66
2022/12/19 07:27:55;;;;;;;12.95;10.10;;;6.20;99.90;;;;;;5026589;28;20029;-66
2022/12/19 07:30:21;;;;;;;13.10;11.70;;;8.30;99.90;;;;;;5032299;28;20036;-65
2022/12/19 07:32:46;;;;;;;14.38;11.13;;;8.30;99.90;;;;;;5023668;28;20402;-66
2022/12/19 07:35:13;;;;;;;14.00;11.15;;;6.20;99.90;;;;;;5028197;28;20120;-66
2022/12/19 07:37:38;;;;;;;11.55;8.93;;;6.60;99.90;;;;;;5021035;28;20045;-66
2022/12/19 07:40:05;;;;;;;13.80;10.05;;;8.10;99.90;;;;;;5031165;28;20045;-66
2022/12/19 07:42:31;;;;;;;13.75;9.85;;;6.10;99.90;;;;;;5023368;28;20046;-66
2022/12/19 07:44:56;;;;;;;10.68;9.07;;;8.20;99.90;;;;;;5031574;28;20038;-66
2022/12/19 07:47:22;;;;;;;13.18;11.18;;;6.90;99.90;;;;;;5032619;28;20112;-66
2022/12/19 07:49:47;;;;;;;13.13;9.35;;;6.20;99.90;;;;;;5035771;28;20110;-66
2022/12/19 07:52:13;;;;;;;11.88;9.98;;;6.50;99.90;;;;;;5035160;28;20073;-66
2022/12/19 07:54:39;;;;;;;12.32;9.75;;;6.40;99.90;;;;;;5034703;28;20045;-66
2022/12/19 07:57:05;;;;;;;11.20;8.63;;;8.40;99.90;;;;;;5034189;28;20064;-66
2022/12/19 07:59:30;;;;;;;12.50;10.00;;;8.10;99.90;;;;;;5034661;28;20053;-66
2022/12/19 08:01:56;;;;;;;14.35;11.07;;;8.30;99.90;;;;;;5030554;28;20042;-66
2022/12/19 08:04:22;;;;;;;18.67;13.82;;;8.30;99.90;;;;;;5025345;28;20076;-66
2022/12/19 08:06:48;;;;;;;19.00;14.63;;;7.40;99.90;;;;;;5022952;28;20116;-66
2022/12/19 08:09:13;;;;;;;16.75;12.80;;;6.50;99.90;;;;;;5022557;28;20034;-66
2022/12/19 08:11:39;;;;;;;17.67;13.25;;;6.80;99.90;;;;;;5029668;28;20239;-66
2022/12/19 08:14:05;;;;;;;21.02;15.57;;;7.50;99.90;;;;;;5035053;28;20116;-66
2022/12/19 08:16:30;;;;;;;20.08;15.25;;;6.80;99.90;;;;;;5032980;28;20131;-66
2022/12/19 08:18:56;;;;;;;15.85;12.25;;;8.60;99.90;;;;;;5031797;28;20041;-66
2022/12/19 08:21:23;;;;;;;16.25;12.70;;;8.80;99.90;;;;;;5031346;28;20033;-67
2022/12/19 08:23:49;;;;;;;15.55;12.77;;;7.30;99.90;;;;;;5022427;28;20042;-66
2022/12/19 08:26:23;;;;;;;16.80;13.65;;;6.50;99.90;;;;;;5026254;28;20048;-66
2022/12/19 08:28:53;;;;;;;16.42;13.40;;;7.10;99.90;;;;;;5028975;28;20128;-66
2022/12/19 08:31:20;;;;;;;12.93;11.20;;;8.60;99.90;;;;;;5031073;28;20392;-66
2022/12/19 08:33:48;;;;;;;16.88;14.25;;;8.60;99.90;;;;;;5021910;28;20041;-66
2022/12/19 08:36:17;;;;;;;17.92;14.00;;;8.20;99.90;;;;;;5026863;28;20103;-66
2022/12/19 08:38:44;;;;;;;19.40;15.60;;;7.00;99.90;;;;;;5034648;28;20052;-66
2022/12/19 08:41:10;;;;;;;19.15;15.02;;;6.90;99.90;;;;;;5031669;28;20038;-66
2022/12/19 08:43:37;;;;;;;21.58;16.60;;;8.40;99.90;;;;;;5030859;28;20046;-67
2022/12/19 08:46:03;;;;;;;16.23;12.70;;;7.20;99.90;;;;;;5032825;28;20490;-67
2022/12/19 08:48:31;;;;;;;20.73;14.20;;;7.50;99.90;;;;;;5034411;28;20025;-66
2022/12/19 08:50:59;;;;;;;18.13;13.43;;;7.10;99.90;;;;;;5033169;28;20068;-66
2022/12/19 08:53:27;;;;;;;16.48;11.25;;;7.10;99.90;;;;;;5032230;28;20049;-66
2022/12/19 08:55:57;;;;;;;17.52;13.40;;;9.40;99.90;;;;;;5017998;28;20566;-66
2022/12/19 08:58:23;;;;;;;16.00;10.70;;;9.10;99.90;;;;;;5014479;28;20037;-66
2022/12/19 09:00:49;;;;;;;18.00;12.75;;;9.00;99.90;;;;;;5015299;28;20069;-66
2022/12/19 09:03:15;;;;;;;14.70;11.05;;;7.30;99.90;;;;;;5033919;28;21606;-66
2022/12/19 09:05:40;;;;;;;16.98;11.68;;;9.00;99.90;;;;;;5032657;28;20042;-67
2022/12/19 09:08:06;;;;;;;13.10;9.90;;;7.30;99.90;;;;;;5029054;28;20062;-67
2022/12/19 09:10:34;;;;;;;14.73;10.85;;;9.20;99.90;;;;;;5028909;28;20056;-66
2022/12/19 09:13:00;;;;;;;19.52;14.50;;;9.20;99.90;;;;;;5031090;28;20048;-67
2022/12/19 09:15:25;;;;;;;16.80;13.18;;;7.30;99.90;;;;;;5018173;28;20037;-67
2022/12/19 09:17:51;;;;;;;21.33;15.63;;;7.40;99.90;;;;;;5032364;28;20120;-67
2022/12/19 09:20:16;;;;;;;21.42;13.50;;;7.40;99.90;;;;;;5031246;28;20033;-67
2022/12/19 09:22:42;;;;;;;20.30;12.57;;;9.10;99.90;;;;;;5018003;28;20042;-66
2022/12/19 09:25:08;;;;;;;13.50;10.73;;;7.40;99.90;;;;;;5031825;28;20041;-67
2022/12/19 09:27:33;;;;;;;14.48;11.43;;;9.10;99.90;;;;;;5025013;28;20049;-66
2022/12/19 09:29:59;;;;;;;16.92;11.85;;;9.10;99.90;;;;;;5030980;28;20087;-67
2022/12/19 09:32:25;;;;;;;16.67;12.18;;;9.20;99.90;;;;;;5023136;28;20523;-67
2022/12/19 09:34:51;;;;;;;16.90;13.38;;;9.00;99.90;;;;;;5031490;28;20068;-67
2022/12/19 09:37:16;;;;;;;24.75;16.02;;;9.20;99.90;;;;;;5030820;28;20046;-67
2022/12/19 09:39:42;;;;;;;16.70;12.63;;;7.30;99.90;;;;;;5025373;28;20043;-67
2022/12/19 09:42:38;;;;;;;16.08;11.35;;;9.20;99.90;;;;;;5019903;28;20045;-67
2022/12/19 09:45:30;;;;;;;14.13;11.13;;;9.20;99.90;;;;;;5031766;28;20406;-67
2022/12/19 09:48:00;;;;;;;14.90;10.07;;;9.60;99.90;;;;;;5022238;28;20041;-67
2022/12/19 09:50:48;;;;;;;15.35;11.93;;;7.80;99.90;;;;;;5028185;28;20046;-67
2022/12/19 09:53:38;;;;;;;17.98;11.82;;;9.10;99.90;;;;;;5032480;28;20037;-67
2022/12/19 09:56:09;;;;;;;17.35;12.07;;;7.90;99.90;;;;;;5032558;28;20065;-67
2022/12/19 09:58:41;;;;;;;15.57;10.85;;;9.30;99.90;;;;;;5030632;28;20076;-67
2022/12/19 10:01:18;;;;;;;17.08;9.55;;;8.70;99.90;;;;;;5031683;28;20057;-67
2022/12/19 10:03:45;;;;;;;;;;;8.20;99.90;;;;;;5024590;28;20513;-67
2022/12/19 10:06:18;;;;;;;14.48;9.82;;;8.80;99.90;;;;;;5024621;28;20054;-67
2022/12/19 10:08:44;;;;;;;14.32;10.43;;;9.60;99.90;;;;;;5017650;28;20041;-67
2022/12/19 10:11:13;;;;;;;16.83;12.38;;;9.40;99.90;;;;;;5031848;28;20033;-68
2022/12/19 10:14:21;;;;;;;13.35;9.70;;;7.50;99.90;;;;;;5032833;28;20049;-68
2022/12/19 10:17:16;;;;;;;16.75;10.95;;;8.80;99.90;;;;;;5024376;28;20080;-67
2022/12/19 10:20:21;;;;;;;16.60;12.38;;;8.50;99.90;;;;;;5028095;28;20124;-67
2022/12/19 10:23:34;;;;;;;19.13;10.55;;;8.00;99.90;;;;;;4963516;28;20484;-67
2022/12/19 10:26:13;;;;;;;11.43;8.80;;;9.70;99.90;;;;;;5023269;28;20041;-67
2022/12/19 10:28:57;;;;;;;12.63;9.70;;;7.60;99.90;;;;;;5026162;28;20038;-67
2022/12/19 10:31:40;;;;;;;17.27;10.73;;;9.20;99.90;;;;;;5029016;28;20103;-67
2022/12/19 10:34:20;;;;;;;17.65;11.73;;;8.30;99.90;;;;;;5031242;28;20152;-67
2022/12/19 10:36:51;;;;;;;13.30;8.68;;;9.80;99.90;;;;;;5031960;28;20091;-67
2022/12/19 10:39:34;;;;;;;13.90;9.60;;;9.80;99.90;;;;;;5031944;28;20502;-67
2022/12/19 10:42:13;;;;;;;15.35;10.40;;;9.80;99.90;;;;;;5031710;28;20542;-67
2022/12/19 10:44:41;;;;;;;15.27;11.23;;;9.90;99.90;;;;;;5031141;28;20030;-67
2022/12/19 10:47:12;;;;;;;12.65;8.98;;;9.90;99.90;;;;;;5023047;28;20042;-67
2022/12/19 10:49:38;;;;;;;13.32;10.05;;;10.00;99.90;;;;;;5031669;28;20518;-68
2022/12/19 10:52:09;;;;;;;13.32;9.25;;;9.00;99.90;;;;;;5031396;28;20053;-67
2022/12/19 10:54:35;;;;;;;13.35;10.98;;;9.80;99.90;;;;;;5031018;28;20049;-67
2022/12/19 10:57:27;;;;;;;13.10;8.93;;;9.60;99.90;;;;;;5030861;28;20755;-67
2022/12/19 11:00:02;;;;;;;17.27;10.02;;;7.70;99.90;;;;;;5020061;28;20049;-68
2022/12/19 11:02:34;;;;;;;10.32;7.38;;;10.00;99.90;;;;;;5023956;28;20045;-68
2022/12/19 11:05:01;;;;;;;13.32;7.88;;;8.80;99.90;;;;;;5031603;28;20046;-68
2022/12/19 11:07:26;;;;;;;18.45;8.15;;;8.70;99.90;;;;;;5024839;28;20049;-67
2022/12/19 11:09:52;;;;;;;11.93;7.80;;;8.00;99.90;;;;;;5026270;28;20029;-67
2022/12/19 11:12:18;;;;;;;13.02;8.15;;;9.30;99.90;;;;;;5030959;28;20427;-68
2022/12/19 11:15:13;;;;;;;14.30;8.15;;;10.00;99.90;;;;;;5029487;28;20057;-68
2022/12/19 11:17:39;;;;;;;15.13;10.65;;;8.90;99.90;;;;;;5025889;28;20064;-68
2022/12/19 11:20:31;;;;;;;15.23;9.25;;;8.10;99.90;;;;;;5029442;28;20045;-67
2022/12/19 11:22:59;;;;;;;10.30;8.38;;;7.90;99.90;;;;;;5020140;28;20042;-67
2022/12/19 11:25:42;;;;;;;14.38;9.35;;;10.00;99.90;;;;;;5030532;28;20095;-67
2022/12/19 11:28:21;;;;;;;12.93;8.95;;;9.20;99.90;;;;;;5030888;28;20041;-68
2022/12/19 11:31:23;;;;;;;12.88;8.85;;;8.70;99.90;;;;;;5029630;28;20040;-67
2022/12/19 11:34:03;;;;;;;9.80;6.95;;;10.00;99.90;;;;;;5011100;28;20046;-67
2022/12/19 11:37:01;;;;;;;15.15;7.82;;;10.40;99.90;;;;;;5025948;28;20033;-67
2022/12/19 11:39:46;;;;;;;13.50;8.93;;;8.20;99.90;;;;;;5014885;28;20041;-67
2022/12/19 11:42:29;;;;;;;13.13;9.15;;;10.10;99.90;;;;;;5025472;28;20038;-67
2022/12/19 11:45:25;;;;;;;14.55;10.18;;;9.00;99.90;;;;;;5030993;28;20125;-67
2022/12/19 11:48:18;;;;;;;8.73;6.60;;;9.40;99.90;;;;;;5015176;28;20100;-67
2022/12/19 11:50:58;;;;;;;11.35;8.38;;;10.20;99.90;;;;;;5023823;28;20037;-67
2022/12/19 11:53:47;;;;;;;10.70;7.88;;;9.50;99.90;;;;;;5026404;28;20526;-67
2022/12/19 11:56:19;;;;;;;11.85;8.52;;;8.30;99.90;;;;;;5012518;28;20518;-67
2022/12/19 11:58:49;;;;;;;11.73;9.38;;;9.70;99.90;;;;;;5020847;28;20126;-67
2022/12/19 12:01:21;;;;;;;11.35;8.77;;;9.00;99.90;;;;;;5018667;28;20053;-67
2022/12/19 12:03:58;;;;;;;16.20;9.20;;;8.60;99.90;;;;;;5030676;28;20067;-67
2022/12/19 12:06:29;;;;;;;14.57;8.93;;;8.20;99.90;;;;;;5031202;28;20494;-67
2022/12/19 12:09:11;;;;;;;9.50;7.05;;;8.50;99.90;;;;;;5031475;28;20042;-67
2022/12/19 12:11:49;;;;;;;9.15;6.95;;;10.50;99.90;;;;;;5030404;28;20057;-67
2022/12/19 12:14:30;;;;;;;10.57;8.07;;;10.40;99.90;;;;;;5029790;28;20052;-67
2022/12/19 12:17:46;;;;;;;10.63;9.07;;;10.10;99.90;;;;;;5029796;28;20041;-67
2022/12/19 12:20:23;;;;;;;12.30;9.20;;;8.50;99.90;;;;;;5030838;28;20079;-67
2022/12/19 12:22:56;;;;;;;12.82;8.93;;;8.90;99.90;;;;;;5029402;28;20508;-67
2022/12/19 12:25:21;;;;;;;10.73;8.02;;;9.80;99.90;;;;;;5030854;28;20031;-67
2022/12/19 12:28:19;;;;;;;9.30;6.88;;;8.50;99.90;;;;;;5031446;28;20558;-67
2022/12/19 12:31:07;;;;;;;9.70;7.07;;;10.40;99.90;;;;;;5032955;28;20497;-67
2022/12/19 12:33:52;;;;;;;10.60;6.65;;;8.80;99.90;;;;;;5017095;28;20068;-67
2022/12/19 12:36:47;;;;;;;10.63;8.07;;;9.20;99.90;;;;;;5032829;28;20034;-68
2022/12/19 12:39:20;;;;;;;12.43;7.13;;;8.90;99.90;;;;;;5032970;28;20029;-67
2022/12/19 12:42:20;;;;;;;10.65;8.23;;;9.00;99.90;;;;;;5025022;28;20049;-67
2022/12/19 12:44:49;;;;;;;11.20;8.38;;;10.10;99.90;;;;;;5021640;28;20069;-67
2022/12/19 12:47:21;;;;;;;9.05;7.47;;;10.40;99.90;;;;;;5020867;28;20056;-67
2022/12/19 12:49:53;;;;;;;8.18;6.22;;;9.70;99.90;;;;;;5018684;28;20449;-67
2022/12/19 12:52:25;;;;;;;11.18;7.80;;;10.30;99.90;;;;;;5032813;28;20131;-67
2022/12/19 12:54:53;;;;;;;10.75;7.30;;;9.90;99.90;;;;;;5017825;28;20037;-67
2022/12/19 12:57:28;;;;;;;18.13;8.20;;;9.00;99.90;;;;;;5032817;28;20033;-67
2022/12/19 13:00:12;;;;;;;11.90;8.73;;;8.10;99.90;;;;;;5025832;28;20506;-67
2022/12/19 13:02:38;;;;;;;11.27;8.20;;;10.00;99.90;;;;;;5029292;28;20045;-67
2022/12/19 13:05:31;;;;;;;10.30;7.45;;;8.20;99.90;;;;;;5001119;28;20442;-67
2022/12/19 13:07:56;;;;;;;8.98;6.60;;;10.50;99.90;;;;;;5033207;28;20029;-67
2022/12/19 13:10:29;;;;;;;12.73;7.85;;;8.00;99.90;;;;;;5031187;28;20121;-67